Terminal Aerodrome Forecast
Issued by NWS

Home | Current Version | Previous Version | Text Only | Print | Product List | Glossary On
Versions: 1 2 3 4 5 6 7 8 9 10 11 12 13 14 15 16 17 18 19 20 21 22 23 24 25 26
000
FTUS43 KMQT 232028 AAB
TAFCMX
TAF AMD
KCMX 232028Z 2320/2418 30005KT P6SM OVC010
      TEMPO 2321/2322 1 1/2SM BR OVC003
     FM232200 29003KT 1/2SM FG OVC003
     FM240100 28003KT 1/4SM FG OVC003
     FM241600 29003KT 1/2SM FG OVC003=

USA.gov is the U.S. government's official web portal to all federal, state and local government web resources and services.